createdAt,value
2023-05-25T00:01:49.551Z,99967.15
2023-05-25T00:04:19.578Z,99970.28
2023-05-25T00:06:47.900Z,99974.70
2023-05-25T00:09:15.714Z,99972.44
2023-05-25T00:11:43.342Z,99976.64
2023-05-25T00:14:11.110Z,99984.33
2023-05-25T00:16:41.038Z,99988.04
2023-05-25T00:19:11.420Z,99993.82
2023-05-25T00:21:38.985Z,99989.98
2023-05-25T00:24:06.709Z,99986.65
2023-05-25T00:26:35.578Z,99982.39
2023-05-25T00:29:07.322Z,99981.27
2023-05-25T00:31:36.966Z,99989.94
2023-05-25T00:34:04.586Z,99990.98
2023-05-25T00:36:32.245Z,99999.30
2023-05-25T00:38:59.835Z,99999.20
2023-05-25T00:41:28.312Z,100001.42
2023-05-25T00:43:57.282Z,100003.29
2023-05-25T00:46:25.244Z,100006.02
2023-05-25T00:48:53.567Z,100005.40
2023-05-25T00:51:21.703Z,100004.45
2023-05-25T00:53:50.945Z,100006.34
2023-05-25T00:56:23.378Z,99999.41
2023-05-25T00:58:53.172Z,100001.51
2023-05-25T01:01:22.214Z,100004.35
2023-05-25T01:03:54.163Z,100005.86
2023-05-25T01:06:22.915Z,100008.77
2023-05-25T01:08:53.036Z,100009.58
2023-05-25T01:11:23.556Z,100013.55
2023-05-25T01:13:53.584Z,100007.90
2023-05-25T01:16:21.335Z,100010.10
2023-05-25T01:18:48.957Z,100015.10
2023-05-25T01:21:29.638Z,100019.02
2023-05-25T01:24:12.206Z,100018.90
2023-05-25T01:26:53.922Z,100020.33
2023-05-25T01:29:21.938Z,100019.94
2023-05-25T01:31:49.792Z,100015.19
2023-05-25T01:34:17.570Z,100012.55
2023-05-25T01:36:45.302Z,100009.17
2023-05-25T01:39:13.027Z,100007.73
2023-05-25T01:41:40.771Z,100004.35
2023-05-25T01:44:08.549Z,100003.06
2023-05-25T01:46:39.732Z,100006.14
2023-05-25T01:49:39.145Z,100005.60
2023-05-25T01:52:15.874Z,100003.30
2023-05-25T01:54:47.384Z,100004.70
2023-05-25T01:57:16.155Z,100006.27
2023-05-25T01:59:44.404Z,100005.49
2023-05-25T02:02:16.653Z,100004.55
2023-05-25T02:04:44.478Z,99998.29
2023-05-25T02:07:12.186Z,99994.23
2023-05-25T02:09:40.021Z,99993.31
2023-05-25T02:12:08.346Z,99998.52
2023-05-25T02:14:35.957Z,99997.28
2023-05-25T02:17:04.045Z,99999.54
2023-05-25T02:19:31.814Z,99995.28
2023-05-25T02:21:59.512Z,99999.61
2023-05-25T02:24:27.466Z,100003.24
2023-05-25T02:26:55.215Z,100006.68
2023-05-25T02:29:23.039Z,99996.96
2023-05-25T02:31:50.776Z,99996.77
2023-05-25T02:34:18.509Z,100001.14
2023-05-25T02:36:46.740Z,99999.73
2023-05-25T02:39:14.561Z,99996.92
2023-05-25T02:41:43.622Z,99998.25
2023-05-25T02:44:11.162Z,99993.39
2023-05-25T02:46:38.889Z,99997.41
2023-05-25T02:49:07.275Z,100002.30
2023-05-25T02:51:36.120Z,100003.33
2023-05-25T02:54:03.836Z,100000.27
2023-05-25T02:56:32.140Z,100002.71
2023-05-25T02:59:00.129Z,100004.45
2023-05-25T03:01:32.086Z,100008.15
2023-05-25T03:04:01.464Z,100001.66
2023-05-25T03:06:32.135Z,100008.12
2023-05-25T03:09:05.221Z,100007.41
2023-05-25T03:11:33.024Z,100009.52
2023-05-25T03:14:01.356Z,100007.92
2023-05-25T03:16:29.787Z,100007.13
2023-05-25T03:18:59.178Z,100011.70
2023-05-25T03:21:27.831Z,100007.70
2023-05-25T03:23:55.542Z,100016.60
2023-05-25T03:26:23.211Z,100020.79
2023-05-25T03:28:52.804Z,100018.84
2023-05-25T03:31:20.788Z,100018.83
2023-05-25T03:33:48.932Z,100023.30
2023-05-25T03:36:17.992Z,100026.26
2023-05-25T03:38:46.177Z,100024.78
2023-05-25T03:41:13.792Z,100022.83
2023-05-25T03:43:41.389Z,100020.81
2023-05-25T03:46:11.845Z,100019.67
2023-05-25T03:48:39.600Z,100016.52
2023-05-25T03:51:07.206Z,100016.95
2023-05-25T03:53:34.809Z,100022.97
2023-05-25T03:56:02.354Z,100020.73
2023-05-25T03:58:30.010Z,100017.39
2023-05-25T04:00:57.771Z,100016.33
2023-05-25T04:03:25.427Z,100016.09
2023-05-25T04:05:53.317Z,100016.73
2023-05-25T04:08:22.778Z,100017.19
2023-05-25T04:10:50.476Z,100019.92
2023-05-25T04:13:18.137Z,100020.20
2023-05-25T04:15:46.286Z,100019.95
2023-05-25T04:18:19.369Z,100017.39
2023-05-25T04:20:48.395Z,100018.85
2023-05-25T04:23:17.672Z,100019.30
2023-05-25T04:25:46.030Z,100018.67
2023-05-25T04:28:15.102Z,100020.85
2023-05-25T04:30:57.461Z,100019.09
2023-05-25T04:33:47.779Z,100016.73
2023-05-25T04:36:26.210Z,100015.89
2023-05-25T04:38:55.617Z,100019.73
2023-05-25T04:41:26.049Z,100021.95
2023-05-25T04:44:09.120Z,100020.73
2023-05-25T04:46:44.799Z,100015.07
2023-05-25T04:49:19.106Z,100016.71
2023-05-25T04:51:46.662Z,100017.73
2023-05-25T04:54:14.968Z,100017.89
2023-05-25T04:56:42.588Z,100022.14
2023-05-25T04:59:11.195Z,100019.05
2023-05-25T05:01:42.296Z,100022.85
2023-05-25T05:04:13.055Z,100025.26
2023-05-25T05:06:40.882Z,100024.26
2023-05-25T05:09:11.881Z,100020.82
2023-05-25T05:11:39.515Z,100023.41
2023-05-25T05:14:07.798Z,100022.08
2023-05-25T05:16:37.803Z,100024.05
2023-05-25T05:19:05.488Z,100026.85
2023-05-25T05:21:33.550Z,100029.20
2023-05-25T05:24:02.291Z,100028.56
2023-05-25T05:26:30.652Z,100031.58
2023-05-25T05:28:59.338Z,100033.32
2023-05-25T05:31:29.570Z,100036.03
2023-05-25T05:33:57.775Z,100036.13
2023-05-25T05:36:25.972Z,100041.92
2023-05-25T05:39:02.037Z,100039.52
2023-05-25T05:50:13.887Z,100038.75
2023-05-25T05:54:04.048Z,100041.68
2023-05-25T05:57:41.991Z,100046.47
2023-05-25T06:01:20.526Z,100048.58
2023-05-25T06:08:29.185Z,100039.92
2023-05-25T06:12:05.126Z,100035.48
2023-05-25T06:18:25.836Z,100032.61
2023-05-25T06:21:48.553Z,100032.09
2023-05-25T06:25:06.440Z,100034.17
2023-05-25T06:28:35.457Z,100033.23
2023-05-25T06:31:51.673Z,100033.78
2023-05-25T06:34:31.774Z,100033.98
2023-05-25T06:38:02.378Z,100037.11
2023-05-25T06:41:38.579Z,100031.98
2023-05-25T06:44:24.916Z,100032.52
2023-05-25T06:47:07.424Z,100037.31
2023-05-25T06:49:35.489Z,100039.11
2023-05-25T06:52:08.948Z,100037.96
2023-05-25T06:54:39.377Z,100038.71
2023-05-25T06:57:07.153Z,100040.95
2023-05-25T06:59:35.020Z,100037.44
2023-05-25T07:02:02.618Z,100036.31
2023-05-25T07:04:30.274Z,100032.39
2023-05-25T07:07:04.381Z,100036.75
2023-05-25T07:09:38.407Z,100036.59
2023-05-25T07:20:05.016Z,100044.60
2023-05-25T07:23:05.611Z,100045.03
2023-05-25T07:25:45.153Z,100043.73
2023-05-25T07:28:35.202Z,100046.50
2023-05-25T07:31:11.327Z,100046.56
2023-05-25T07:34:25.824Z,100047.59
2023-05-25T07:36:56.198Z,100047.09
2023-05-25T07:39:24.641Z,100048.88
2023-05-25T07:42:13.961Z,100046.20
2023-05-25T07:45:18.993Z,100046.53
2023-05-25T07:47:59.396Z,100047.27
2023-05-25T07:51:04.104Z,100043.65
2023-05-25T07:53:49.839Z,100041.42
2023-05-25T07:56:25.013Z,100042.39
2023-05-25T07:59:11.014Z,100039.59
2023-05-25T08:02:59.652Z,100039.58
2023-05-25T08:06:09.678Z,100034.59
2023-05-25T08:09:50.207Z,100031.92
2023-05-25T08:16:51.719Z,100025.54
2023-05-25T08:19:34.558Z,100016.23
2023-05-25T08:22:45.629Z,100011.08
2023-05-25T08:25:20.650Z,100005.64
2023-05-25T08:27:52.088Z,100006.89
2023-05-25T08:30:23.501Z,100003.50
2023-05-25T08:32:52.303Z,99999.64
2023-05-25T08:35:20.817Z,100000.27
2023-05-25T08:37:51.695Z,99996.96
2023-05-25T08:40:23.455Z,99996.38
2023-05-25T08:42:52.038Z,100001.64
2023-05-25T08:46:00.649Z,99995.70
2023-05-25T08:48:53.746Z,99991.90
2023-05-25T08:51:58.322Z,99990.75
2023-05-25T08:54:34.909Z,99984.58
2023-05-25T08:57:40.328Z,99985.07
2023-05-25T09:01:32.455Z,99981.72
2023-05-25T09:13:13.163Z,100004.27
2023-05-25T09:16:12.085Z,100006.18
2023-05-25T09:18:41.983Z,100014.58
2023-05-25T09:21:42.594Z,100024.10
2023-05-25T09:24:34.959Z,100027.91
2023-05-25T09:27:24.673Z,100027.23
2023-05-25T09:30:33.094Z,100026.98
2023-05-25T09:36:51.129Z,100042.08
2023-05-25T09:39:55.269Z,100039.38
2023-05-25T09:42:35.805Z,100035.59
2023-05-25T09:45:29.401Z,100039.45
2023-05-25T09:48:45.045Z,100042.79
2023-05-25T09:51:33.326Z,100044.60
2023-05-25T09:54:25.089Z,100037.80
2023-05-25T09:56:52.646Z,100035.52
2023-05-25T09:59:20.320Z,100041.15
2023-05-25T10:01:51.367Z,100036.46
2023-05-25T10:04:19.270Z,100034.31
2023-05-25T10:06:47.301Z,100030.14
2023-05-25T10:09:15.580Z,100034.39
2023-05-25T10:11:43.173Z,100038.23
2023-05-25T10:14:10.832Z,100038.14
2023-05-25T10:16:39.194Z,100039.45
2023-05-25T10:19:18.591Z,100033.70
2023-05-25T10:21:51.830Z,100033.23
2023-05-25T10:24:35.233Z,100028.08
2023-05-25T10:27:14.826Z,100026.46
2023-05-25T10:29:52.744Z,100022.13
2023-05-25T10:32:20.371Z,100020.30
2023-05-25T10:34:48.134Z,100016.67
2023-05-25T10:37:15.846Z,100015.44
2023-05-25T10:39:45.758Z,100013.00
2023-05-25T10:42:13.827Z,100008.31
2023-05-25T10:44:44.919Z,100008.44
2023-05-25T10:47:14.594Z,100005.73
2023-05-25T10:49:54.495Z,100007.84
2023-05-25T10:52:22.334Z,100007.70
2023-05-25T10:54:50.039Z,100005.80
2023-05-25T10:57:22.048Z,100006.46
2023-05-25T11:00:00.766Z,100009.66
2023-05-25T11:02:29.197Z,100007.70
2023-05-25T11:05:27.839Z,100006.70
2023-05-25T11:08:23.637Z,100009.28
2023-05-25T11:10:53.170Z,100005.39
2023-05-25T11:13:21.992Z,100007.59
2023-05-25T11:16:21.534Z,100010.53
2023-05-25T11:18:58.077Z,100011.30
2023-05-25T11:21:29.118Z,100011.79
2023-05-25T11:24:04.413Z,100011.29
2023-05-25T11:26:35.362Z,100001.36
2023-05-25T11:29:12.813Z,99999.41
2023-05-25T11:31:43.692Z,99992.48
2023-05-25T11:34:12.095Z,99991.44
2023-05-25T11:36:39.808Z,99988.47
2023-05-25T11:39:17.146Z,99989.69
2023-05-25T11:42:02.073Z,99987.48
2023-05-25T11:44:31.274Z,99985.02
2023-05-25T11:47:01.932Z,99983.06
2023-05-25T11:49:29.656Z,99977.03
2023-05-25T11:51:57.535Z,99981.59
2023-05-25T11:54:28.768Z,99982.33
2023-05-25T11:57:00.198Z,99983.39
2023-05-25T11:59:30.651Z,99988.25
2023-05-25T12:02:01.182Z,99990.75
2023-05-25T12:04:29.716Z,99989.77
2023-05-25T12:07:07.210Z,99991.13
2023-05-25T12:09:35.203Z,99988.64
2023-05-25T12:12:06.763Z,99985.30
2023-05-25T12:14:36.261Z,99979.96
2023-05-25T12:17:04.161Z,99977.05
2023-05-25T12:19:32.073Z,99982.28
2023-05-25T12:21:59.600Z,99983.40
2023-05-25T12:24:27.125Z,99991.42
2023-05-25T12:26:59.296Z,100001.34
2023-05-25T12:29:26.917Z,100005.96
2023-05-25T12:32:02.697Z,100011.44
2023-05-25T12:34:30.257Z,100019.67
2023-05-25T12:36:57.887Z,100017.92
2023-05-25T12:39:31.600Z,100020.02
2023-05-25T12:41:59.792Z,100019.59
2023-05-25T12:44:27.669Z,100014.02
2023-05-25T12:46:55.890Z,100011.70
2023-05-25T12:49:33.569Z,100008.64
2023-05-25T12:52:02.419Z,100005.41
2023-05-25T12:54:45.057Z,99995.72
2023-05-25T12:57:14.177Z,99986.54
2023-05-25T12:59:43.229Z,99982.41
2023-05-25T13:02:13.054Z,99982.58
2023-05-25T13:04:41.480Z,99978.67
2023-05-25T13:07:09.320Z,99980.60
2023-05-25T13:09:37.245Z,99984.27
2023-05-25T13:12:05.197Z,99978.65
2023-05-25T13:14:32.859Z,99979.25
2023-05-25T13:17:00.666Z,99970.33
2023-05-25T13:19:28.164Z,99957.36
2023-05-25T13:21:56.856Z,99950.30
2023-05-25T13:24:24.751Z,99948.74
